Aérodrome :
LOGIN :

S'inscrire | Disclaimer

   EN    FR    IT 

 










Légende :    VFR   VFR Marginal   IFR   IFR Intensif   IFR Très Intensif
Visi : 
Plafond : 
>= 8 km
>= 3000ft
5 à 8 km
1000 à 3000 ft
1500m à 5 km
500 à 1000 ft
800 à 1500m
200 à 500 ft
< 800m
< 200 ft
Symboles :   Orages  Brouillard  Fortes neiges  Fortes précipitations  Vent > 20 kt
SIGMETs :   Divers  Orages  Givrage  Turbulence  Onde Orograph.  Cendres Volcan.







- Altitude de l'aérodrome : 400 ft
- Code IATA : BNX


LQBK - Banja Luka

DERNIER METAR :
  • 171730Z VRB01KT 1500 BR SCT013 BKN047 M04/M05 Q1026 NOSIG

METARs EXPIRÉS :
  • 171700Z 02002KT 1500 BR SCT013 BKN047 M04/M05 Q1025 NOSIG
  • 171630Z 30002KT 1500 BR SCT013 BKN047 M04/M05 Q1025 NOSIG
  • 171600Z 31004KT 1500 BR SCT013 BKN047 M04/M05 Q1025 NOSIG
  • 171530Z VRB01KT 2000 BR SCT010 BKN040 M03/M04 Q1024 NOSIG
  • 171500Z 15002KT 2000 BR SCT010 BKN040 M03/M04 Q1024 NOSIG

TAF TAF LQBK
Valide du 17 à 18h jusqu'au 18 à 18h UTC


171700Z 1718/1818 VRB02KT 3000 BR SCT012 BKN045 TXM00/1813Z TNM07/1806Z
PROB40
TEMPO 1721/1808 0200 FZFG BKN002
Pas de NOTAMs connus pour ce terrain.



MET'MAP, la Météo Aéronautique d'un coup d'oeil ! - Copyright ORBIFLY Décembre 2007 - Disclaimer

ORBIFLY MET'MAP TEAM :

Programmation & Développement : Alexandra Zaïnal
Conception & Développement : Baudouin d'Aumeries
Co-Programmation & Développement : Marc-Olivier Méhu
Soutien technique & logistique : Manuel Goepfert

Contact : metmap@orbifly.com




SOURCES & CREDITS :

   NOAA